Time;durP1;ratioP1;P1;durP2;ratioP2;P2;SDS_P1;SDS_P2;PMS_P1;PMS_P2;Temp;Humidity;BMP_temperature;BMP_pressure;BME280_temperature;BME280_humidity;BME280_pressure;Samples;Min_cycle;Max_cycle;Signal;HPM_P1;HPM_P2
2021/05/02 00:01:32;;;;;;;4.32;2.50;;;;;;;;;;4995509;28;20181;-76
2021/05/02 00:03:57;;;;;;;4.70;2.60;;;;;;;;;;4995532;28;20541;-76
2021/05/02 00:06:22;;;;;;;4.93;2.63;;;;;;;;;;4995331;28;20041;-76
2021/05/02 00:08:48;;;;;;;5.40;2.73;;;;;;;;;;5008141;28;20098;-76
2021/05/02 00:11:13;;;;;;;5.13;2.60;;;;;;;;;;4992028;28;20038;-76
2021/05/02 00:13:39;;;;;;;3.97;2.50;;;;;;;;;;4993085;28;20062;-77
2021/05/02 00:16:04;;;;;;;4.53;2.63;;;;;;;;;;4995210;28;20038;-77
2021/05/02 00:18:30;;;;;;;5.37;2.63;;;;;;;;;;5011844;28;20049;-76
2021/05/02 00:20:55;;;;;;;4.53;2.60;;;;;;;;;;5008031;28;20772;-76
2021/05/02 00:23:21;;;;;;;5.67;2.60;;;;;;;;;;4975896;28;20478;-76
2021/05/02 00:25:47;;;;;;;5.53;2.83;;;;;;;;;;4991839;28;20037;-76
2021/05/02 00:28:12;;;;;;;5.17;2.63;;;;;;;;;;4991501;28;20054;-76
2021/05/02 00:30:37;;;;;;;4.23;2.40;;;;;;;;;;4996004;28;20447;-77
2021/05/02 00:33:03;;;;;;;4.73;2.70;;;;;;;;;;4994530;28;20189;-76
2021/05/02 00:35:28;;;;;;;6.20;3.03;;;;;;;;;;5011064;28;20034;-76
2021/05/02 00:37:54;;;;;;;4.37;2.40;;;;;;;;;;4995044;28;20035;-76
2021/05/02 00:40:21;;;;;;;4.70;2.43;;;;;;;;;;4995011;28;20390;-76
2021/05/02 00:42:48;;;;;;;5.03;2.53;;;;;;;;;;5010480;28;20035;-76
2021/05/02 00:45:19;;;;;;;5.53;2.60;;;;;;;;;;4994572;28;20125;-76
2021/05/02 00:47:47;;;;;;;5.30;2.92;;;;;;;;;;4994383;28;20026;-76
2021/05/02 00:50:16;;;;;;;5.97;2.90;;;;;;;;;;5010891;28;20042;-77
2021/05/02 00:52:48;;;;;;;4.60;2.50;;;;;;;;;;5010548;28;20036;-76
2021/05/02 00:55:16;;;;;;;5.28;2.53;;;;;;;;;;4995491;28;20030;-76
2021/05/02 00:58:01;;;;;;;5.20;2.85;;;;;;;;;;4992997;28;20026;-77
2021/05/02 01:00:33;;;;;;;5.38;2.90;;;;;;;;;;5010762;28;20110;-76
2021/05/02 01:03:03;;;;;;;4.90;2.53;;;;;;;;;;5010700;28;20034;-76
2021/05/02 01:05:29;;;;;;;6.20;2.92;;;;;;;;;;5010622;28;20042;-76
2021/05/02 01:07:55;;;;;;;5.90;2.77;;;;;;;;;;4994250;28;20601;-76
2021/05/02 01:10:20;;;;;;;5.03;2.80;;;;;;;;;;5010308;28;20444;-76
2021/05/02 01:12:53;;;;;;;4.40;2.90;;;;;;;;;;5011239;28;20038;-76
2021/05/02 01:15:23;;;;;;;4.47;2.45;;;;;;;;;;5010303;28;20121;-76
2021/05/02 01:18:08;;;;;;;5.30;2.75;;;;;;;;;;4995202;28;20026;-76
2021/05/02 01:20:38;;;;;;;5.05;2.70;;;;;;;;;;5009920;28;20050;-76
2021/05/02 01:23:18;;;;;;;4.95;2.67;;;;;;;;;;4993778;28;20033;-76
2021/05/02 01:25:44;;;;;;;4.45;2.85;;;;;;;;;;5009624;28;20401;-76
2021/05/02 01:28:09;;;;;;;5.45;2.60;;;;;;;;;;5010158;28;20031;-76
2021/05/02 01:30:35;;;;;;;5.20;2.80;;;;;;;;;;5009911;28;20073;-76
2021/05/02 01:33:00;;;;;;;4.67;2.60;;;;;;;;;;5010180;28;20061;-76
2021/05/02 01:35:25;;;;;;;5.53;2.80;;;;;;;;;;5009914;28;20409;-76
2021/05/02 01:37:51;;;;;;;5.37;2.73;;;;;;;;;;5010121;28;20438;-76
2021/05/02 01:40:17;;;;;;;4.40;2.40;;;;;;;;;;5009977;28;20039;-76
2021/05/02 01:42:42;;;;;;;4.95;2.53;;;;;;;;;;5009988;28;20120;-76
2021/05/02 01:45:08;;;;;;;4.90;2.57;;;;;;;;;;5009842;28;20069;-76
2021/05/02 01:47:34;;;;;;;5.30;2.80;;;;;;;;;;5006373;28;20027;-76
2021/05/02 01:50:06;;;;;;;5.75;2.80;;;;;;;;;;4974096;28;20045;-76
2021/05/02 01:52:34;;;;;;;5.20;2.70;;;;;;;;;;4990082;28;20496;-77
2021/05/02 01:54:59;;;;;;;4.28;2.45;;;;;;;;;;4985802;28;20429;-77
2021/05/02 01:57:29;;;;;;;4.93;2.60;;;;;;;;;;4993123;28;20112;-77
2021/05/02 01:59:57;;;;;;;4.53;2.40;;;;;;;;;;5009507;28;20839;-77
2021/05/02 02:02:23;;;;;;;5.93;3.08;;;;;;;;;;5009620;28;20148;-77
2021/05/02 02:04:49;;;;;;;4.63;2.70;;;;;;;;;;4993042;28;20120;-77
2021/05/02 02:07:15;;;;;;;4.80;2.50;;;;;;;;;;5009217;28;20038;-77
2021/05/02 02:09:40;;;;;;;5.00;2.70;;;;;;;;;;4992260;28;20074;-76
2021/05/02 02:12:06;;;;;;;4.53;2.63;;;;;;;;;;4992946;28;20040;-77
2021/05/02 02:14:32;;;;;;;4.88;2.50;;;;;;;;;;4993105;28;20066;-77
2021/05/02 02:16:57;;;;;;;4.53;2.57;;;;;;;;;;5009223;28;20045;-77
2021/05/02 02:19:23;;;;;;;5.37;2.60;;;;;;;;;;4992840;28;20121;-77
2021/05/02 02:21:48;;;;;;;4.87;2.30;;;;;;;;;;5009224;28;20062;-77
2021/05/02 02:24:14;;;;;;;4.57;2.60;;;;;;;;;;4992996;28;20544;-77
2021/05/02 02:26:55;;;;;;;4.10;2.33;;;;;;;;;;4992732;28;20472;-77
2021/05/02 02:29:20;;;;;;;4.65;2.60;;;;;;;;;;5009203;28;20030;-77
2021/05/02 02:31:46;;;;;;;5.50;2.60;;;;;;;;;;4992847;28;20146;-77
2021/05/02 02:34:13;;;;;;;4.40;2.43;;;;;;;;;;4992656;28;20061;-77
2021/05/02 02:36:38;;;;;;;;;;;;;;;;;;5009642;28;20030;-77
2021/05/02 02:39:04;;;;;;;5.28;2.47;;;;;;;;;;5009093;28;20000;-77
2021/05/02 02:41:29;;;;;;;5.13;2.80;;;;;;;;;;4992730;28;20026;-77
2021/05/02 02:43:56;;;;;;;5.13;2.70;;;;;;;;;;4992599;28;20454;-77
2021/05/02 02:46:22;;;;;;;4.93;2.50;;;;;;;;;;4992511;28;20089;-77
2021/05/02 02:48:55;;;;;;;4.87;2.60;;;;;;;;;;5009110;28;20026;-77
2021/05/02 02:51:21;;;;;;;5.25;2.90;;;;;;;;;;4992406;28;20034;-77
2021/05/02 02:53:47;;;;;;;4.85;2.75;;;;;;;;;;5008826;28;20031;-77
2021/05/02 02:56:13;;;;;;;4.77;2.60;;;;;;;;;;4992402;28;20082;-77
2021/05/02 02:59:03;;;;;;;4.22;2.53;;;;;;;;;;5008801;28;20037;-77
2021/05/02 03:01:29;;;;;;;4.55;2.50;;;;;;;;;;5008956;28;20405;-77
2021/05/02 03:03:57;;;;;;;4.03;2.20;;;;;;;;;;4992476;28;20031;-77
2021/05/02 03:06:25;;;;;;;5.00;2.67;;;;;;;;;;4992197;28;20034;-77
2021/05/02 03:08:50;;;;;;;4.68;2.53;;;;;;;;;;5008385;28;20066;-77
2021/05/02 03:11:16;;;;;;;5.80;2.50;;;;;;;;;;5008593;28;20074;-77
2021/05/02 03:13:43;;;;;;;5.70;2.77;;;;;;;;;;5008886;28;20069;-77
2021/05/02 03:16:08;;;;;;;3.78;2.42;;;;;;;;;;5008541;28;20031;-77
2021/05/02 03:18:43;;;;;;;4.57;2.50;;;;;;;;;;5008841;28;20432;-77
2021/05/02 03:21:09;;;;;;;4.18;2.13;;;;;;;;;;5007668;28;20032;-77
2021/05/02 03:23:38;;;;;;;5.63;2.60;;;;;;;;;;4996212;28;20030;-77
2021/05/02 03:26:05;;;;;;;4.38;2.38;;;;;;;;;;4996062;28;20030;-77
2021/05/02 03:28:39;;;;;;;5.30;2.53;;;;;;;;;;4996089;28;20054;-77
2021/05/02 03:31:05;;;;;;;4.57;2.63;;;;;;;;;;4995673;28;20027;-77
2021/05/02 03:33:33;;;;;;;4.73;2.40;;;;;;;;;;5012235;28;20038;-77
2021/05/02 03:35:59;;;;;;;4.80;2.38;;;;;;;;;;5012443;28;20371;-77
2021/05/02 03:38:41;;;;;;;4.50;2.50;;;;;;;;;;5012186;28;20041;-77
2021/05/02 03:41:06;;;;;;;3.90;2.33;;;;;;;;;;5012220;28;20061;-77
2021/05/02 03:43:31;;;;;;;4.00;2.27;;;;;;;;;;5012147;28;20496;-77
2021/05/02 03:45:57;;;;;;;4.73;2.17;;;;;;;;;;5011814;28;20489;-77
2021/05/02 03:48:22;;;;;;;4.97;2.70;;;;;;;;;;4996125;28;20532;-77
2021/05/02 03:50:47;;;;;;;3.93;2.50;;;;;;;;;;5011958;28;20429;-77
2021/05/02 03:53:13;;;;;;;3.93;2.33;;;;;;;;;;4995637;28;20466;-77
2021/05/02 03:55:39;;;;;;;4.13;2.40;;;;;;;;;;5011898;28;20110;-77
2021/05/02 03:58:11;;;;;;;3.92;2.17;;;;;;;;;;4995432;28;20060;-77
2021/05/02 04:00:37;;;;;;;5.25;2.28;;;;;;;;;;5012183;28;20065;-77
2021/05/02 04:03:03;;;;;;;5.38;2.33;;;;;;;;;;5011793;28;20030;-77
2021/05/02 04:05:28;;;;;;;3.97;2.20;;;;;;;;;;5011667;28;20030;-77
2021/05/02 04:07:54;;;;;;;3.17;1.93;;;;;;;;;;5011636;28;20481;-77
2021/05/02 04:10:19;;;;;;;4.77;2.03;;;;;;;;;;4997215;28;20070;-79
2021/05/02 04:12:44;;;;;;;4.40;2.47;;;;;;;;;;5006201;23;20396;-73
2021/05/02 04:15:10;;;;;;;4.53;2.50;;;;;;;;;;4971074;28;20078;-75
2021/05/02 04:17:36;;;;;;;5.50;2.30;;;;;;;;;;4988104;28;20039;-75
2021/05/02 04:20:01;;;;;;;4.07;2.20;;;;;;;;;;4973436;28;20556;-76
2021/05/02 04:22:30;;;;;;;4.60;2.23;;;;;;;;;;4973238;28;20387;-76
2021/05/02 04:24:55;;;;;;;4.32;2.10;;;;;;;;;;4956239;28;20089;-76
2021/05/02 04:27:20;;;;;;;4.07;2.27;;;;;;;;;;4971478;28;20474;-75
2021/05/02 04:29:46;;;;;;;3.80;2.23;;;;;;;;;;4973010;28;20129;-76
2021/05/02 04:32:11;;;;;;;4.43;2.30;;;;;;;;;;4987255;28;20073;-76
2021/05/02 04:34:37;;;;;;;4.33;2.60;;;;;;;;;;4971196;28;20043;-75
2021/05/02 04:37:02;;;;;;;3.90;2.10;;;;;;;;;;4971483;28;20069;-75
2021/05/02 04:39:28;;;;;;;3.47;2.00;;;;;;;;;;4971524;28;20100;-75
2021/05/02 04:41:53;;;;;;;3.33;2.10;;;;;;;;;;4955509;28;20446;-75
2021/05/02 04:44:19;;;;;;;4.73;2.23;;;;;;;;;;4972712;28;20062;-75
2021/05/02 04:46:44;;;;;;;3.90;1.97;;;;;;;;;;4972807;28;20771;-75
2021/05/02 04:49:10;;;;;;;3.37;2.10;;;;;;;;;;4970800;28;20066;-75
2021/05/02 04:51:36;;;;;;;4.87;2.43;;;;;;;;;;4955265;28;20066;-75
2021/05/02 04:54:01;;;;;;;4.27;2.23;;;;;;;;;;4970982;28;20042;-75
2021/05/02 04:56:26;;;;;;;3.70;2.07;;;;;;;;;;4971388;28;20030;-75
2021/05/02 04:58:52;;;;;;;3.73;2.17;;;;;;;;;;4955296;28;20070;-75
2021/05/02 05:01:17;;;;;;;4.60;2.13;;;;;;;;;;4970662;28;20066;-77
2021/05/02 05:03:43;;;;;;;4.13;2.10;;;;;;;;;;4970950;28;20073;-76
2021/05/02 05:06:08;;;;;;;4.57;2.17;;;;;;;;;;4970706;28;20042;-77
2021/05/02 05:08:34;;;;;;;3.47;2.20;;;;;;;;;;4970997;28;20441;-76
2021/05/02 05:10:59;;;;;;;3.57;2.10;;;;;;;;;;4954720;28;20421;-77
2021/05/02 05:13:27;;;;;;;4.60;2.13;;;;;;;;;;4970369;28;20401;-76
2021/05/02 05:15:56;;;;;;;3.85;2.20;;;;;;;;;;4954671;28;20031;-76
2021/05/02 05:18:22;;;;;;;5.75;2.13;;;;;;;;;;4970747;28;20050;-76
2021/05/02 05:20:47;;;;;;;4.03;1.90;;;;;;;;;;4970959;28;20039;-75
2021/05/02 05:23:12;;;;;;;3.47;1.70;;;;;;;;;;4971025;28;20387;-76
2021/05/02 05:25:38;;;;;;;3.90;1.90;;;;;;;;;;4970258;28;20128;-76
2021/05/02 05:28:03;;;;;;;3.57;1.93;;;;;;;;;;4970601;28;20074;-76
2021/05/02 05:30:29;;;;;;;4.00;2.00;;;;;;;;;;4971793;28;20030;-75
2021/05/02 05:33:03;;;;;;;3.73;2.17;;;;;;;;;;4970370;28;20074;-75
2021/05/02 05:35:30;;;;;;;3.72;1.90;;;;;;;;;;4971929;28;20055;-75
2021/05/02 05:37:55;;;;;;;3.90;2.00;;;;;;;;;;4970184;28;20057;-75
2021/05/02 05:40:21;;;;;;;3.67;1.93;;;;;;;;;;4954620;28;20494;-75
2021/05/02 05:42:46;;;;;;;4.00;1.93;;;;;;;;;;4970431;28;20039;-76
2021/05/02 05:45:12;;;;;;;3.53;1.90;;;;;;;;;;4970353;28;20030;-76
2021/05/02 05:47:37;;;;;;;2.90;1.90;;;;;;;;;;4971567;28;20085;-75
2021/05/02 05:50:03;;;;;;;3.30;2.00;;;;;;;;;;4970174;28;20070;-76
2021/05/02 05:52:28;;;;;;;3.77;2.00;;;;;;;;;;4953907;28;20137;-76
2021/05/02 05:54:53;;;;;;;3.53;2.00;;;;;;;;;;4970230;28;20049;-76
2021/05/02 05:57:19;;;;;;;4.07;2.00;;;;;;;;;;4969591;28;20042;-76
2021/05/02 05:59:44;;;;;;;3.17;1.73;;;;;;;;;;4969293;28;20133;-75
2021/05/02 06:02:10;;;;;;;3.37;1.80;;;;;;;;;;4970523;28;20074;-77
2021/05/02 06:04:35;;;;;;;3.13;1.73;;;;;;;;;;4971411;28;20062;-78
2021/05/02 06:07:01;;;;;;;3.13;1.70;;;;;;;;;;4970064;28;20105;-78
2021/05/02 06:09:26;;;;;;;2.90;1.80;;;;;;;;;;4971500;28;20058;-79
2021/05/02 06:11:52;;;;;;;3.77;1.93;;;;;;;;;;4953897;28;20070;-78
2021/05/02 06:14:18;;;;;;;4.25;1.92;;;;;;;;;;4970245;28;20039;-78
2021/05/02 06:16:43;;;;;;;3.80;1.90;;;;;;;;;;4955345;28;20101;-78
2021/05/02 06:19:08;;;;;;;3.87;2.00;;;;;;;;;;4971715;28;20489;-79
2021/05/02 06:21:34;;;;;;;3.93;1.90;;;;;;;;;;4955563;28;20035;-77
2021/05/02 06:24:00;;;;;;;4.17;1.93;;;;;;;;;;4955647;28;20031;-78
2021/05/02 06:26:26;;;;;;;2.85;1.75;;;;;;;;;;4969032;28;21298;-77
2021/05/02 06:28:51;;;;;;;3.07;1.80;;;;;;;;;;4969727;28;20504;-77
2021/05/02 06:31:20;;;;;;;3.37;1.87;;;;;;;;;;4970959;28;20117;-77
2021/05/02 06:33:46;;;;;;;3.33;1.88;;;;;;;;;;4954030;28;20041;-77
2021/05/02 06:36:11;;;;;;;3.35;1.88;;;;;;;;;;4953684;28;20038;-77
2021/05/02 06:38:37;;;;;;;3.00;1.70;;;;;;;;;;4970571;28;20073;-77
2021/05/02 06:41:02;;;;;;;3.87;1.77;;;;;;;;;;4970864;28;20074;-77
2021/05/02 06:43:27;;;;;;;3.57;1.80;;;;;;;;;;4953531;28;20069;-77
2021/05/02 06:45:53;;;;;;;3.43;1.90;;;;;;;;;;4969640;28;20031;-77
2021/05/02 06:48:18;;;;;;;4.13;1.90;;;;;;;;;;4969475;28;20398;-76
2021/05/02 06:50:44;;;;;;;3.50;1.90;;;;;;;;;;4969137;28;20133;-76
2021/05/02 06:53:09;;;;;;;2.47;1.70;;;;;;;;;;4953182;28;20092;-76
2021/05/02 06:55:35;;;;;;;3.27;1.77;;;;;;;;;;4970414;28;20077;-76
2021/05/02 06:58:00;;;;;;;3.70;1.80;;;;;;;;;;4959808;28;20126;-76
2021/05/02 07:00:27;;;;;;;2.80;1.60;;;;;;;;;;4975692;28;20072;-76
2021/05/02 07:02:52;;;;;;;2.92;1.48;;;;;;;;;;4975025;28;20043;-77
2021/05/02 07:05:17;;;;;;;3.07;1.70;;;;;;;;;;4976262;28;20041;-76
2021/05/02 07:07:43;;;;;;;2.93;1.60;;;;;;;;;;4977000;28;20062;-76
2021/05/02 07:10:08;;;;;;;3.27;1.83;;;;;;;;;;4977213;28;20077;-76
2021/05/02 07:12:34;;;;;;;3.45;1.70;;;;;;;;;;4959245;28;20043;-76
2021/05/02 07:14:59;;;;;;;2.97;1.70;;;;;;;;;;4975420;28;20541;-76
2021/05/02 07:17:24;;;;;;;2.63;1.60;;;;;;;;;;4976715;28;20270;-77
2021/05/02 07:19:50;;;;;;;2.83;1.60;;;;;;;;;;4975920;28;20112;-76
2021/05/02 07:22:17;;;;;;;2.87;1.53;;;;;;;;;;4959529;28;20398;-76
2021/05/02 07:24:43;;;;;;;2.88;1.75;;;;;;;;;;4960148;28;20119;-77
2021/05/02 07:27:08;;;;;;;3.00;1.50;;;;;;;;;;4975082;28;20147;-77
2021/05/02 07:29:33;;;;;;;2.63;1.73;;;;;;;;;;4975373;28;20074;-78
2021/05/02 07:31:59;;;;;;;3.17;1.63;;;;;;;;;;4976500;28;20085;-76
2021/05/02 07:34:26;;;;;;;3.13;1.53;;;;;;;;;;4975876;28;20405;-76
2021/05/02 07:36:54;;;;;;;3.30;1.88;;;;;;;;;;4975472;28;20030;-78
2021/05/02 07:39:20;;;;;;;2.72;1.55;;;;;;;;;;4958864;28;20026;-74
2021/05/02 07:41:45;;;;;;;2.77;1.60;;;;;;;;;;4959517;28;20038;-76
2021/05/02 07:44:11;;;;;;;2.97;1.80;;;;;;;;;;4976674;28;20038;-75
2021/05/02 07:46:36;;;;;;;2.97;1.53;;;;;;;;;;4959415;28;20039;-76
2021/05/02 07:49:02;;;;;;;2.67;1.63;;;;;;;;;;4959102;28;20768;-76
2021/05/02 07:51:27;;;;;;;1.97;1.40;;;;;;;;;;4960126;28;20039;-76
2021/05/02 07:53:52;;;;;;;2.60;1.80;;;;;;;;;;4959623;28;20038;-76
2021/05/02 07:56:18;;;;;;;3.03;1.63;;;;;;;;;;4976304;28;20062;-77
2021/05/02 07:58:43;;;;;;;3.80;1.80;;;;;;;;;;4960276;28;20049;-77
2021/05/02 08:01:08;;;;;;;2.77;1.57;;;;;;;;;;4977327;28;20101;-78
2021/05/02 08:03:34;;;;;;;3.13;1.60;;;;;;;;;;4980129;28;20109;-77
2021/05/02 08:05:59;;;;;;;2.47;1.47;;;;;;;;;;4980857;28;20042;-78
2021/05/02 08:08:24;;;;;;;2.53;1.33;;;;;;;;;;4980302;28;20039;-77
2021/05/02 08:10:50;;;;;;;3.03;1.60;;;;;;;;;;4977345;28;20054;-77
2021/05/02 08:13:18;;;;;;;2.67;1.50;;;;;;;;;;4975830;28;20066;-78
2021/05/02 08:15:44;;;;;;;2.72;1.60;;;;;;;;;;4962501;28;20054;-77
2021/05/02 08:18:09;;;;;;;2.40;1.50;;;;;;;;;;4959653;28;20039;-77
2021/05/02 08:20:34;;;;;;;2.43;1.60;;;;;;;;;;4975807;28;20085;-77
2021/05/02 08:23:00;;;;;;;2.37;1.50;;;;;;;;;;4976875;28;20074;-78
2021/05/02 08:25:25;;;;;;;4.23;1.90;;;;;;;;;;4975675;28;20118;-78
2021/05/02 08:27:50;;;;;;;2.93;1.60;;;;;;;;;;4975669;28;20521;-78
2021/05/02 08:30:16;;;;;;;2.80;1.60;;;;;;;;;;4974939;28;20081;-77
2021/05/02 08:32:41;;;;;;;2.10;1.50;;;;;;;;;;4975501;28;20043;-77
2021/05/02 08:35:07;;;;;;;2.60;1.53;;;;;;;;;;4959272;28;20619;-76
2021/05/02 08:37:33;;;;;;;2.47;1.38;;;;;;;;;;4975241;28;20034;-76
2021/05/02 08:39:58;;;;;;;2.47;1.40;;;;;;;;;;4975231;28;20039;-76
2021/05/02 08:42:24;;;;;;;3.90;1.57;;;;;;;;;;4959192;28;20490;-77
2021/05/02 08:44:50;;;;;;;2.97;1.60;;;;;;;;;;4958914;28;20480;-77
2021/05/02 08:47:15;;;;;;;2.65;1.45;;;;;;;;;;4975198;28;20093;-77
2021/05/02 08:49:42;;;;;;;2.53;1.63;;;;;;;;;;4976489;28;20082;-77
2021/05/02 08:52:07;;;;;;;2.47;1.40;;;;;;;;;;4974804;28;20535;-76
2021/05/02 08:54:32;;;;;;;2.47;1.43;;;;;;;;;;4975129;28;20121;-76
2021/05/02 08:56:58;;;;;;;3.13;1.50;;;;;;;;;;4973334;28;20039;-77
2021/05/02 08:59:23;;;;;;;2.83;1.63;;;;;;;;;;4955825;28;20050;-77
2021/05/02 09:01:49;;;;;;;3.13;1.43;;;;;;;;;;4955586;28;20086;-77
2021/05/02 09:04:15;;;;;;;2.80;1.70;;;;;;;;;;4971524;28;20042;-77
2021/05/02 09:06:41;;;;;;;2.50;1.40;;;;;;;;;;4971288;28;20497;-77
2021/05/02 09:09:08;;;;;;;2.80;1.50;;;;;;;;;;4955315;28;20130;-78
2021/05/02 09:11:38;;;;;;;2.78;1.65;;;;;;;;;;4971788;28;20034;-77
2021/05/02 09:14:06;;;;;;;2.67;1.50;;;;;;;;;;4971397;28;20549;-77
2021/05/02 09:16:58;;;;;;;2.40;1.50;;;;;;;;;;4975293;28;20548;-77
2021/05/02 09:19:31;;;;;;;2.63;1.50;;;;;;;;;;4958318;28;20039;-78
2021/05/02 09:22:13;;;;;;;2.03;1.25;;;;;;;;;;4955596;29;20065;-79
2021/05/02 09:24:39;;;;;;;2.78;1.65;;;;;;;;;;4957376;29;20097;-79
2021/05/02 09:27:04;;;;;;;2.60;1.60;;;;;;;;;;4972675;28;20121;-81
2021/05/02 09:29:31;;;;;;;2.97;1.63;;;;;;;;;;4977541;28;20035;-78
2021/05/02 09:31:56;;;;;;;3.08;1.30;;;;;;;;;;4959362;28;20085;-77
2021/05/02 09:34:22;;;;;;;2.70;1.40;;;;;;;;;;4959097;28;20053;-79
2021/05/02 09:36:56;;;;;;;2.73;1.50;;;;;;;;;;4976351;28;20073;-79
2021/05/02 09:39:38;;;;;;;2.38;1.45;;;;;;;;;;4992325;28;20034;-79
2021/05/02 09:42:07;;;;;;;2.72;1.50;;;;;;;;;;4976160;28;20030;-79
2021/05/02 09:44:38;;;;;;;3.40;1.67;;;;;;;;;;4974605;28;20495;-78
2021/05/02 09:47:34;;;;;;;2.60;1.60;;;;;;;;;;4957911;28;20081;-77
2021/05/02 09:50:03;;;;;;;2.60;1.50;;;;;;;;;;4973769;28;20030;-77
2021/05/02 09:52:45;;;;;;;2.65;1.50;;;;;;;;;;4975327;28;20031;-78
2021/05/02 09:55:32;;;;;;;2.58;1.40;;;;;;;;;;4973642;28;20043;-78
2021/05/02 09:58:25;;;;;;;2.40;1.50;;;;;;;;;;4975097;28;20031;-78
2021/05/02 10:00:50;;;;;;;3.10;1.42;;;;;;;;;;4974293;28;20027;-77
2021/05/02 10:03:19;;;;;;;2.30;1.33;;;;;;;;;;4973329;28;20401;-79
2021/05/02 10:06:06;;;;;;;1.92;1.35;;;;;;;;;;4975486;28;20065;-79
2021/05/02 10:08:32;;;;;;;2.55;1.50;;;;;;;;;;4961423;28;20115;-79
2021/05/02 10:10:58;;;;;;;;;;;;;;;;;;4957952;28;20046;-78
2021/05/02 10:13:25;;;;;;;3.15;1.40;;;;;;;;;;4974681;28;19973;-79
2021/05/02 10:15:50;;;;;;;2.85;1.40;;;;;;;;;;4957456;28;20034;-79
2021/05/02 10:18:15;;;;;;;2.67;1.50;;;;;;;;;;4974206;28;20047;-78
2021/05/02 10:20:43;;;;;;;2.40;1.57;;;;;;;;;;4975247;28;20076;-79
2021/05/02 10:23:08;;;;;;;2.78;1.58;;;;;;;;;;4958970;28;20035;-78
2021/05/02 10:25:36;;;;;;;2.23;1.30;;;;;;;;;;4974097;28;20105;-78
2021/05/02 10:28:01;;;;;;;2.50;1.50;;;;;;;;;;4958475;28;20035;-78
2021/05/02 10:30:32;;;;;;;3.23;1.63;;;;;;;;;;4973313;28;20104;-79
2021/05/02 10:33:05;;;;;;;1.98;1.23;;;;;;;;;;4959528;28;20078;-79
2021/05/02 10:35:53;;;;;;;2.20;1.30;;;;;;;;;;4974599;28;20114;-79
2021/05/02 10:38:19;;;;;;;2.88;1.60;;;;;;;;;;4959890;28;20031;-80
2021/05/02 10:40:45;;;;;;;2.70;1.60;;;;;;;;;;4975499;28;20037;-79
2021/05/02 10:43:27;;;;;;;3.50;1.53;;;;;;;;;;4976835;28;20030;-79
2021/05/02 10:45:54;;;;;;;2.58;1.40;;;;;;;;;;4952038;28;20023;-81
2021/05/02 10:48:22;;;;;;;2.38;1.55;;;;;;;;;;4955623;29;20049;-80
2021/05/02 10:50:51;;;;;;;2.92;1.50;;;;;;;;;;4970578;28;20057;-80
2021/05/02 10:53:18;;;;;;;2.97;1.38;;;;;;;;;;4959285;28;20422;-79
2021/05/02 10:56:03;;;;;;;2.40;1.25;;;;;;;;;;4958912;28;20045;-79
2021/05/02 10:58:36;;;;;;;1.95;1.27;;;;;;;;;;4960151;28;20493;-80
2021/05/02 11:01:09;;;;;;;4.63;1.50;;;;;;;;;;4974873;28;20053;-81
2021/05/02 11:03:41;;;;;;;2.00;1.20;;;;;;;;;;4960135;28;20500;-83
2021/05/02 11:06:13;;;;;;;2.40;1.23;;;;;;;;;;4976271;28;20049;-80
2021/05/02 11:08:52;;;;;;;2.58;1.40;;;;;;;;;;4973619;28;20035;-79
2021/05/02 11:11:37;;;;;;;2.97;1.35;;;;;;;;;;4974398;28;20506;-78
2021/05/02 11:16:41;;;;;;;2.58;1.40;;;;;;;;;;4973183;28;20054;-79
2021/05/02 11:19:07;;;;;;;2.58;1.25;;;;;;;;;;4955919;28;20041;-78
2021/05/02 11:24:20;;;;;;;3.25;1.52;;;;;;;;;;4972287;28;19972;-78
2021/05/02 11:32:26;;;;;;;2.45;1.27;;;;;;;;;;4971957;28;20071;-78
2021/05/02 11:34:53;;;;;;;2.67;1.40;;;;;;;;;;4971613;28;20034;-77
2021/05/02 11:37:40;;;;;;;1.73;1.20;;;;;;;;;;4955271;28;20093;-78
2021/05/02 11:40:17;;;;;;;2.45;1.50;;;;;;;;;;4972100;28;20106;-78
2021/05/02 11:42:52;;;;;;;2.08;1.27;;;;;;;;;;4973620;28;20046;-78
2021/05/02 11:45:19;;;;;;;2.30;1.50;;;;;;;;;;4974345;28;20042;-78
2021/05/02 11:47:44;;;;;;;2.42;1.40;;;;;;;;;;4974080;28;20053;-78
2021/05/02 11:50:09;;;;;;;2.63;1.40;;;;;;;;;;4958715;28;20490;-79
2021/05/02 11:52:45;;;;;;;2.03;1.20;;;;;;;;;;4974192;28;20046;-79
2021/05/02 11:55:29;;;;;;;2.17;1.35;;;;;;;;;;4974678;28;20119;-78
2021/05/02 11:57:55;;;;;;;2.05;1.30;;;;;;;;;;4975459;28;20058;-77
2021/05/02 12:00:36;;;;;;;2.37;1.20;;;;;;;;;;4956761;28;20145;-77
2021/05/02 12:03:01;;;;;;;2.97;1.38;;;;;;;;;;4973211;28;20043;-78
2021/05/02 12:05:27;;;;;;;2.80;1.40;;;;;;;;;;4973067;28;20047;-78
2021/05/02 12:08:11;;;;;;;2.90;1.30;;;;;;;;;;4974446;28;20058;-78
2021/05/02 12:10:37;;;;;;;3.70;1.45;;;;;;;;;;4972844;28;20046;-77
2021/05/02 12:13:02;;;;;;;1.90;1.23;;;;;;;;;;4956530;28;20046;-77
2021/05/02 12:15:28;;;;;;;1.97;1.27;;;;;;;;;;4956713;28;20113;-78
2021/05/02 12:17:53;;;;;;;2.67;1.30;;;;;;;;;;4973947;28;20050;-77
2021/05/02 12:20:26;;;;;;;2.23;1.37;;;;;;;;;;4974387;28;20066;-78
2021/05/02 12:22:51;;;;;;;2.55;1.40;;;;;;;;;;4972260;28;20552;-78
2021/05/02 12:25:16;;;;;;;2.20;1.30;;;;;;;;;;4972183;28;20039;-78
2021/05/02 12:27:58;;;;;;;2.57;1.50;;;;;;;;;;4956797;28;20106;-78
2021/05/02 12:30:23;;;;;;;3.10;1.20;;;;;;;;;;4956523;28;20039;-77
2021/05/02 12:32:49;;;;;;;2.57;1.20;;;;;;;;;;4956282;28;20473;-78
2021/05/02 12:35:14;;;;;;;2.23;1.37;;;;;;;;;;4972316;28;20498;-77
2021/05/02 12:37:40;;;;;;;2.13;1.37;;;;;;;;;;4972151;28;20030;-77
2021/05/02 12:40:06;;;;;;;3.13;1.23;;;;;;;;;;4972476;28;20120;-77
2021/05/02 12:42:36;;;;;;;3.63;1.45;;;;;;;;;;4956375;28;20097;-77
2021/05/02 12:45:03;;;;;;;2.40;1.30;;;;;;;;;;4955404;28;20099;-76
2021/05/02 12:47:28;;;;;;;2.00;1.20;;;;;;;;;;4955904;28;20070;-77
2021/05/02 12:49:55;;;;;;;2.33;1.33;;;;;;;;;;4956038;28;20046;-77
2021/05/02 12:52:33;;;;;;;2.00;1.17;;;;;;;;;;4987985;28;20035;-77
2021/05/02 12:55:27;;;;;;;1.73;1.20;;;;;;;;;;4971405;28;20506;-77
2021/05/02 12:58:04;;;;;;;2.80;1.15;;;;;;;;;;4972375;28;20043;-77
2021/05/02 13:00:36;;;;;;;2.45;1.40;;;;;;;;;;4971654;28;20867;-77
2021/05/02 13:03:28;;;;;;;2.45;1.45;;;;;;;;;;4956194;28;20042;-77
2021/05/02 13:06:13;;;;;;;2.38;1.40;;;;;;;;;;4972534;28;20382;-77
2021/05/02 13:08:39;;;;;;;3.33;1.20;;;;;;;;;;4974116;28;20035;-78
2021/05/02 13:11:37;;;;;;;2.40;1.30;;;;;;;;;;4956371;28;20094;-78
2021/05/02 13:14:15;;;;;;;2.13;1.25;;;;;;;;;;4967975;28;20051;-80
2021/05/02 13:16:54;;;;;;;2.03;1.23;;;;;;;;;;4955259;28;20122;-78
2021/05/02 13:19:20;;;;;;;2.53;1.25;;;;;;;;;;4955050;28;20051;-77
2021/05/02 13:21:45;;;;;;;2.83;1.63;;;;;;;;;;4972245;28;20513;-79
2021/05/02 13:24:11;;;;;;;2.73;1.40;;;;;;;;;;4955016;28;20077;-78
2021/05/02 13:26:40;;;;;;;2.70;1.23;;;;;;;;;;4971309;28;20084;-79
2021/05/02 13:29:06;;;;;;;2.22;1.30;;;;;;;;;;4954527;28;20034;-78
2021/05/02 13:31:44;;;;;;;1.80;1.17;;;;;;;;;;4972432;28;20449;-78
2021/05/02 13:34:10;;;;;;;2.10;1.30;;;;;;;;;;4954930;28;20036;-78
2021/05/02 13:36:36;;;;;;;2.05;1.20;;;;;;;;;;4971811;28;20039;-77
2021/05/02 13:39:02;;;;;;;1.93;1.27;;;;;;;;;;4987384;28;20669;-78
2021/05/02 13:41:29;;;;;;;1.95;1.17;;;;;;;;;;4971703;28;20054;-79
2021/05/02 13:44:01;;;;;;;;;;;;;;;;;;4955251;28;20580;-79
2021/05/02 13:46:26;;;;;;;2.55;1.30;;;;;;;;;;4971540;28;19917;-78
2021/05/02 13:48:52;;;;;;;2.93;1.50;;;;;;;;;;4970858;28;20049;-79
2021/05/02 13:51:17;;;;;;;2.50;1.47;;;;;;;;;;4971511;28;20066;-79
2021/05/02 13:53:42;;;;;;;2.00;1.23;;;;;;;;;;4971768;28;20043;-79
2021/05/02 13:56:08;;;;;;;3.00;1.50;;;;;;;;;;4987777;28;20568;-79
2021/05/02 13:58:33;;;;;;;2.43;1.30;;;;;;;;;;4987431;28;20453;-79
2021/05/02 14:00:58;;;;;;;2.23;1.33;;;;;;;;;;4970714;28;20588;-78
2021/05/02 14:03:25;;;;;;;2.43;1.30;;;;;;;;;;4971831;28;20081;-78
2021/05/02 14:05:50;;;;;;;2.17;1.25;;;;;;;;;;4955835;28;20097;-79
2021/05/02 14:08:16;;;;;;;1.97;1.20;;;;;;;;;;4971261;28;20073;-78
2021/05/02 14:10:41;;;;;;;1.67;1.10;;;;;;;;;;4971381;28;20065;-78
2021/05/02 14:13:06;;;;;;;2.10;1.30;;;;;;;;;;4975490;28;20167;-77
2021/05/02 14:15:32;;;;;;;2.43;1.40;;;;;;;;;;4970289;28;20066;-77
2021/05/02 14:17:57;;;;;;;2.60;1.50;;;;;;;;;;4953609;28;20092;-77
2021/05/02 14:20:22;;;;;;;3.07;1.70;;;;;;;;;;4969447;28;20066;-77
2021/05/02 14:22:48;;;;;;;2.30;1.30;;;;;;;;;;4970922;28;20110;-77
2021/05/02 14:25:13;;;;;;;2.23;1.40;;;;;;;;;;4969892;28;20062;-77
2021/05/02 14:27:38;;;;;;;3.13;1.50;;;;;;;;;;4969224;28;20073;-77
2021/05/02 14:30:04;;;;;;;2.17;1.40;;;;;;;;;;4971094;28;20062;-76
2021/05/02 14:32:30;;;;;;;2.50;1.33;;;;;;;;;;4983404;23;20056;-78
2021/05/02 14:34:55;;;;;;;2.30;1.30;;;;;;;;;;5003540;28;20312;-78
2021/05/02 14:37:24;;;;;;;2.43;1.30;;;;;;;;;;5019643;28;20037;-80
2021/05/02 14:39:49;;;;;;;2.60;1.50;;;;;;;;;;5004944;28;20450;-78
2021/05/02 14:42:14;;;;;;;1.87;1.30;;;;;;;;;;5018424;28;20024;-78
2021/05/02 14:44:40;;;;;;;2.30;1.43;;;;;;;;;;4984816;28;20515;-78
2021/05/02 14:47:06;;;;;;;2.33;1.37;;;;;;;;;;5002447;28;20498;-78
2021/05/02 14:49:31;;;;;;;2.33;1.38;;;;;;;;;;5003406;28;20041;-78
2021/05/02 14:51:57;;;;;;;2.07;1.50;;;;;;;;;;4985946;28;20471;-79
2021/05/02 14:54:22;;;;;;;2.57;1.30;;;;;;;;;;5000793;28;20072;-82
2021/05/02 14:56:48;;;;;;;2.33;1.37;;;;;;;;;;5001926;28;20037;-78
2021/05/02 14:59:14;;;;;;;2.23;1.30;;;;;;;;;;5005007;28;20123;-79